createdAt,value
2019-03-06T00:03:53.986Z,96497.92
2019-03-06T00:07:56.167Z,96495.69
2019-03-06T00:11:58.143Z,96501.95
2019-03-06T00:16:00.033Z,96505.06
2019-03-06T00:20:01.996Z,96505.67
2019-03-06T00:24:05.023Z,96504.86
2019-03-06T00:28:06.960Z,96507.38
2019-03-06T00:32:09.001Z,96509.50
2019-03-06T00:36:12.528Z,96507.69
2019-03-06T00:40:19.799Z,96516.05
2019-03-06T00:44:21.708Z,96512.50
2019-03-06T00:48:23.742Z,96519.05
2019-03-06T00:52:25.628Z,96508.19
2019-03-06T00:56:27.543Z,96504.25
2019-03-06T01:00:29.586Z,96500.21
2019-03-06T01:04:31.495Z,96490.05
2019-03-06T01:08:33.578Z,96488.92
2019-03-06T01:12:36.025Z,96486.22
2019-03-06T01:16:37.935Z,96478.64
2019-03-06T01:20:39.838Z,96478.31
2019-03-06T01:24:42.884Z,96476.89
2019-03-06T01:28:45.063Z,96477.66
2019-03-06T01:32:48.659Z,96482.79
2019-03-06T01:37:08.883Z,96481.66
2019-03-06T01:41:13.478Z,96478.81
2019-03-06T01:45:15.904Z,96477.50
2019-03-06T01:49:17.808Z,96476.03
2019-03-06T01:53:19.703Z,96462.94
2019-03-06T01:57:21.585Z,96459.48
2019-03-06T02:01:23.491Z,96463.52
2019-03-06T02:05:25.881Z,96461.07
2019-03-06T02:09:29.033Z,96459.70
2019-03-06T02:13:31.225Z,96456.48
2019-03-06T02:17:33.238Z,96445.91
2019-03-06T02:21:35.189Z,96444.00
2019-03-06T02:25:37.183Z,96441.39
2019-03-06T02:29:39.081Z,96446.35
2019-03-06T02:33:41.025Z,96445.42
2019-03-06T02:37:42.998Z,96431.62
2019-03-06T02:41:45.216Z,96436.75
2019-03-06T02:45:47.220Z,96439.36
2019-03-06T02:49:49.124Z,96435.12
2019-03-06T02:53:51.012Z,96421.95
2019-03-06T02:57:54.549Z,96417.00
2019-03-06T03:02:00.809Z,96425.66
2019-03-06T03:06:04.427Z,96421.71
2019-03-06T03:10:10.026Z,96439.59
2019-03-06T03:14:11.918Z,96437.85
2019-03-06T03:18:13.837Z,96425.58
2019-03-06T03:22:15.729Z,96424.36
2019-03-06T03:26:25.006Z,96418.61
2019-03-06T03:30:27.188Z,96414.23
2019-03-06T03:34:29.106Z,96407.94
2019-03-06T03:38:31.948Z,96406.38
2019-03-06T03:42:33.860Z,96403.81
2019-03-06T03:46:35.761Z,96405.67
2019-03-06T03:50:37.654Z,96398.66
2019-03-06T03:54:39.556Z,96408.27
2019-03-06T03:58:41.501Z,96404.44
2019-03-06T04:02:43.741Z,96411.05
2019-03-06T04:06:45.831Z,96406.77
2019-03-06T04:10:47.836Z,96404.53
2019-03-06T04:14:49.719Z,96401.84
2019-03-06T04:18:51.642Z,96349.78
2019-03-06T04:22:53.558Z,96414.23
2019-03-06T04:26:55.469Z,96417.73
2019-03-06T04:30:57.386Z,96406.52
2019-03-06T04:35:00.349Z,96408.03
2019-03-06T04:39:02.230Z,96405.36
2019-03-06T04:43:05.745Z,96407.59
2019-03-06T04:47:07.654Z,96420.03
2019-03-06T04:51:09.572Z,96416.63
2019-03-06T04:55:13.796Z,96413.30
2019-03-06T04:59:15.699Z,96419.09
2019-03-06T05:03:17.910Z,96427.95
2019-03-06T05:07:19.809Z,96416.83
2019-03-06T05:11:21.726Z,96411.59
2019-03-06T05:15:23.647Z,96413.51
2019-03-06T05:19:25.579Z,96416.55
2019-03-06T05:23:27.564Z,96410.42
2019-03-06T05:27:29.480Z,96404.47
2019-03-06T05:31:31.938Z,96399.62
2019-03-06T05:36:05.208Z,96400.94
2019-03-06T05:40:07.124Z,96409.30
2019-03-06T05:44:13.104Z,96407.59
2019-03-06T05:48:12.790Z,96388.07
2019-03-06T05:52:15.396Z,96382.34
2019-03-06T05:56:17.309Z,96373.08
2019-03-06T06:00:21.566Z,96374.91
2019-03-06T06:04:23.518Z,96357.97
2019-03-06T06:08:25.716Z,96360.20
2019-03-06T06:12:27.629Z,96351.94
2019-03-06T06:16:29.577Z,96351.13
2019-03-06T06:20:31.488Z,96355.77
2019-03-06T06:24:33.592Z,96361.02
2019-03-06T06:28:35.498Z,96360.80
2019-03-06T06:32:37.420Z,96363.42
2019-03-06T06:36:39.335Z,96370.78
2019-03-06T06:40:41.326Z,96369.58
2019-03-06T06:44:43.237Z,96367.17
2019-03-06T06:48:45.236Z,96362.14
2019-03-06T06:53:14.537Z,96352.86
2019-03-06T06:57:39.060Z,96325.93
2019-03-06T07:02:20.907Z,96355.25
2019-03-06T07:06:27.214Z,96345.30
2019-03-06T07:10:46.860Z,96357.67
2019-03-06T07:15:06.816Z,96349.30
2019-03-06T07:19:26.504Z,96339.41
2019-03-06T07:23:46.235Z,96326.69
2019-03-06T07:27:52.763Z,96332.30
2019-03-06T07:31:56.313Z,96299.02
2019-03-06T07:36:01.467Z,96306.05
2019-03-06T07:40:05.034Z,96304.52
2019-03-06T07:44:29.744Z,96307.11
2019-03-06T07:48:27.227Z,96296.59
2019-03-06T07:52:30.783Z,96302.48
2019-03-06T07:56:34.397Z,96299.05
2019-03-06T08:00:36.331Z,96287.97
2019-03-06T08:04:38.431Z,96283.17
2019-03-06T08:08:40.359Z,96280.63
2019-03-06T08:12:44.188Z,96268.95
2019-03-06T08:16:47.806Z,96268.58
2019-03-06T08:20:51.541Z,96254.72
2019-03-06T08:25:12.460Z,96250.70
2019-03-06T08:29:14.501Z,96254.33
2019-03-06T08:33:18.483Z,96238.40
2019-03-06T08:37:20.663Z,96243.96
2019-03-06T08:41:22.692Z,96252.02
2019-03-06T08:45:30.356Z,96254.88
2019-03-06T08:49:35.341Z,96252.19
2019-03-06T08:53:47.559Z,96246.53
2019-03-06T08:57:54.155Z,96246.88
2019-03-06T09:02:00.931Z,96240.59
2019-03-06T09:06:05.829Z,96235.95
2019-03-06T09:10:14.536Z,96236.53
2019-03-06T09:14:21.256Z,96233.90
2019-03-06T09:18:28.217Z,96236.09
2019-03-06T09:22:30.156Z,96229.17
2019-03-06T09:26:37.029Z,96229.80
2019-03-06T09:30:43.390Z,96229.95
2019-03-06T09:34:52.861Z,96215.39
2019-03-06T09:38:57.663Z,96211.54
2019-03-06T09:43:01.784Z,96208.70
2019-03-06T09:47:06.325Z,96199.44
2019-03-06T09:51:25.266Z,96194.17
2019-03-06T09:55:34.806Z,96189.27
2019-03-06T09:59:39.382Z,96188.85
2019-03-06T10:03:50.253Z,96187.66
2019-03-06T10:07:53.842Z,96180.30
2019-03-06T10:12:15.501Z,96181.94
2019-03-06T10:16:23.260Z,96179.34
2019-03-06T10:20:26.614Z,96174.84
2019-03-06T10:24:28.517Z,96159.08
2019-03-06T10:28:30.402Z,96156.16
2019-03-06T10:32:32.402Z,96150.03
2019-03-06T10:36:34.313Z,96164.34
2019-03-06T10:40:36.211Z,96159.66
2019-03-06T10:44:38.118Z,96155.44
2019-03-06T10:48:40.010Z,96159.14
2019-03-06T10:52:42.258Z,96143.87
2019-03-06T10:56:44.230Z,96144.97
2019-03-06T11:00:47.802Z,96136.48
2019-03-06T11:04:54.068Z,96126.86
2019-03-06T11:08:55.969Z,96117.44
2019-03-06T11:12:58.990Z,96101.96
2019-03-06T11:17:01.484Z,96091.58
2019-03-06T11:21:03.635Z,96082.05
2019-03-06T11:25:10.293Z,96082.27
2019-03-06T11:29:12.899Z,96059.75
2019-03-06T11:33:15.823Z,96056.80
2019-03-06T11:37:18.051Z,96059.78
2019-03-06T11:41:20.111Z,96046.61
2019-03-06T11:45:22.632Z,96045.33
2019-03-06T11:49:25.809Z,96044.60
2019-03-06T11:53:29.065Z,96037.75
2019-03-06T11:57:33.227Z,96040.03
2019-03-06T12:01:35.699Z,96038.44
2019-03-06T12:05:38.939Z,96030.34
2019-03-06T12:14:07.719Z,96018.99
2019-03-06T12:18:09.865Z,96003.31
2019-03-06T12:22:11.771Z,96002.52
2019-03-06T12:26:13.744Z,95995.93
2019-03-06T12:30:19.958Z,95982.98
2019-03-06T12:34:21.872Z,95971.91
2019-03-06T12:38:24.106Z,95962.55
2019-03-06T12:42:26.053Z,95955.67
2019-03-06T12:46:29.034Z,95947.47
2019-03-06T12:50:39.741Z,95942.83
2019-03-06T12:54:41.653Z,95920.88
2019-03-06T12:58:43.630Z,95918.92
2019-03-06T13:02:45.999Z,95910.44
2019-03-06T13:06:47.918Z,95901.58
2019-03-06T13:10:49.883Z,95895.53
2019-03-06T13:14:51.985Z,95877.29
2019-03-06T13:18:54.042Z,95868.30
2019-03-06T13:22:56.180Z,95850.54
2019-03-06T13:26:58.151Z,95836.47
2019-03-06T13:31:00.087Z,95828.78
2019-03-06T13:35:02.180Z,95829.34
2019-03-06T13:39:06.601Z,95823.02
2019-03-06T13:43:08.945Z,95818.25
2019-03-06T13:47:11.920Z,95799.15
2019-03-06T13:51:13.905Z,95793.84
2019-03-06T13:55:17.821Z,95788.52
2019-03-06T13:59:19.739Z,95779.23
2019-03-06T14:03:21.658Z,95777.38
2019-03-06T14:07:23.583Z,95770.47
2019-03-06T14:11:25.825Z,95766.20
2019-03-06T14:15:27.816Z,95752.68
2019-03-06T14:19:29.738Z,95750.55
2019-03-06T14:23:35.133Z,95738.82
2019-03-06T14:27:35.539Z,95731.63
2019-03-06T14:31:37.601Z,95732.20
2019-03-06T14:35:39.530Z,95720.81
2019-03-06T14:39:41.731Z,95712.58
2019-03-06T14:43:43.649Z,95711.02
2019-03-06T14:47:47.336Z,95709.95
2019-03-06T14:51:49.243Z,95711.27
2019-03-06T14:55:51.242Z,95707.86
2019-03-06T14:59:53.172Z,95697.22
2019-03-06T15:03:55.073Z,95687.68
2019-03-06T15:08:07.112Z,95690.06
2019-03-06T15:12:09.070Z,95690.86
2019-03-06T15:16:11.033Z,95685.55
2019-03-06T15:20:25.138Z,95674.66
2019-03-06T15:24:27.083Z,95665.88
2019-03-06T15:28:29.037Z,95656.36
2019-03-06T15:32:32.465Z,95657.97
2019-03-06T15:36:34.388Z,95651.33
2019-03-06T15:40:40.442Z,95646.83
2019-03-06T15:44:42.495Z,95640.17
2019-03-06T15:48:44.528Z,95641.80
2019-03-06T15:52:46.941Z,95647.61
2019-03-06T15:56:48.862Z,95645.52
2019-03-06T16:00:50.843Z,95648.14
2019-03-06T16:04:52.773Z,95638.62
2019-03-06T16:08:55.058Z,95637.52
2019-03-06T16:12:57.216Z,95638.32
2019-03-06T16:16:59.424Z,95631.64
2019-03-06T16:21:01.481Z,95630.84
2019-03-06T16:25:03.860Z,95632.94
2019-03-06T16:29:05.908Z,95625.23
2019-03-06T16:33:08.024Z,95619.34
2019-03-06T16:37:10.087Z,95609.95
2019-03-06T16:41:13.695Z,95608.59
2019-03-06T16:45:18.971Z,95605.66
2019-03-06T16:49:20.881Z,95602.68
2019-03-06T16:53:22.803Z,95597.60
2019-03-06T16:57:25.935Z,95587.13
2019-03-06T17:01:31.577Z,95589.97
2019-03-06T17:05:34.804Z,95579.08
2019-03-06T17:09:37.035Z,95577.86
2019-03-06T17:13:39.128Z,95571.89
2019-03-06T17:17:41.013Z,95571.59
2019-03-06T17:21:42.919Z,95563.36
2019-03-06T17:25:44.832Z,95557.38
2019-03-06T17:29:46.733Z,95562.81
2019-03-06T17:33:48.695Z,95562.70
2019-03-06T17:37:50.593Z,95557.05
2019-03-06T17:41:52.746Z,95554.52
2019-03-06T17:45:54.701Z,95560.51
2019-03-06T17:49:56.599Z,95550.67
2019-03-06T17:53:58.529Z,95555.39
2019-03-06T17:58:00.466Z,95548.70
2019-03-06T18:02:02.458Z,95547.31
2019-03-06T18:06:04.373Z,95556.22
2019-03-06T18:10:14.023Z,95549.95
2019-03-06T18:14:16.072Z,95552.42
2019-03-06T18:18:18.173Z,95551.10
2019-03-06T18:22:20.049Z,95554.25
2019-03-06T18:26:21.959Z,95555.53
2019-03-06T18:30:23.990Z,95547.04
2019-03-06T18:34:26.094Z,95550.92
2019-03-06T18:38:28.050Z,95548.80
2019-03-06T18:42:29.963Z,95537.97
2019-03-06T18:46:31.856Z,95523.06
2019-03-06T18:50:33.763Z,95515.48
2019-03-06T18:54:35.706Z,95506.74
2019-03-06T18:58:37.609Z,95496.52
2019-03-06T19:02:39.515Z,95496.37
2019-03-06T19:06:41.495Z,95488.75
2019-03-06T19:10:43.467Z,95484.31
2019-03-06T19:14:45.373Z,95480.30
2019-03-06T19:18:47.262Z,95476.83
2019-03-06T19:22:50.752Z,95472.23
2019-03-06T19:26:52.773Z,95460.39
2019-03-06T19:30:54.713Z,95457.22
2019-03-06T19:34:56.736Z,95454.31
2019-03-06T19:38:59.747Z,95459.45
2019-03-06T19:43:01.619Z,95451.89
2019-03-06T19:47:03.520Z,95456.73
2019-03-06T19:51:05.476Z,95446.77
2019-03-06T19:55:11.228Z,95440.59
2019-03-06T19:59:13.450Z,95442.41
2019-03-06T20:03:15.429Z,95440.14
2019-03-06T20:07:17.581Z,95434.66
2019-03-06T20:11:20.828Z,95432.38
2019-03-06T20:15:22.977Z,95429.03
2019-03-06T20:19:26.098Z,95421.48
2019-03-06T20:23:28.024Z,95423.09
2019-03-06T20:27:29.999Z,95423.17
2019-03-06T20:31:31.898Z,95425.91
2019-03-06T20:35:34.842Z,95423.31
2019-03-06T20:39:36.735Z,95418.67
2019-03-06T20:43:38.642Z,95424.61
2019-03-06T20:47:40.575Z,95423.34
2019-03-06T20:51:42.533Z,95413.84
2019-03-06T20:55:44.485Z,95401.46
2019-03-06T20:59:46.449Z,95394.89
2019-03-06T21:03:50.204Z,95389.55
2019-03-06T21:07:52.029Z,95388.13
2019-03-06T21:11:53.905Z,95382.87
2019-03-06T21:15:55.832Z,95384.29
2019-03-06T21:19:57.744Z,95376.11
2019-03-06T21:23:59.668Z,95380.25
2019-03-06T21:28:01.562Z,95380.66
2019-03-06T21:32:03.555Z,95377.73
2019-03-06T21:36:05.630Z,95375.30
2019-03-06T21:40:11.440Z,95369.75
2019-03-06T21:44:13.350Z,95377.48
2019-03-06T21:48:15.291Z,95365.11
2019-03-06T21:52:17.175Z,95368.88
2019-03-06T21:56:20.307Z,95365.85
2019-03-06T22:00:24.775Z,95362.42
2019-03-06T22:04:27.536Z,95368.11
2019-03-06T22:08:29.710Z,95366.00
2019-03-06T22:12:31.614Z,95361.30
2019-03-06T22:16:33.704Z,95360.84
2019-03-06T22:20:35.600Z,95349.89
2019-03-06T22:24:37.613Z,95349.14
2019-03-06T22:28:39.576Z,95351.47
2019-03-06T22:32:41.568Z,95345.27
2019-03-06T22:36:43.469Z,95349.35
2019-03-06T22:40:52.560Z,95340.21
2019-03-06T22:44:54.532Z,95334.16
2019-03-06T22:48:57.408Z,95336.63
2019-03-06T22:52:59.306Z,95334.34
2019-03-06T22:57:02.299Z,95333.64
2019-03-06T23:01:08.871Z,95335.80
2019-03-06T23:05:11.248Z,95340.85
2019-03-06T23:09:13.695Z,95338.78
2019-03-06T23:13:15.579Z,95326.20
2019-03-06T23:17:17.758Z,95324.64
2019-03-06T23:21:19.645Z,95330.28
2019-03-06T23:25:21.554Z,95361.69
2019-03-06T23:29:23.734Z,95333.70
2019-03-06T23:33:26.652Z,95314.58
2019-03-06T23:37:28.650Z,95318.37
2019-03-06T23:41:30.774Z,95298.16
2019-03-06T23:45:32.677Z,95296.08
2019-03-06T23:49:36.274Z,95282.95
2019-03-06T23:53:45.795Z,95283.30
2019-03-06T23:57:47.790Z,95296.81
